• Join FlightAware (Why Join?)
  • Login
  • US Flag 
04:57AM EDT


 

Airport Tracker/Info


-or-


 

Live Flight TrackerFlight Track Log ✈ GGA1 ✈ 22-Jul-2013 ✈ KOXC - KAHN

Flight Track Log - Related Links

Times and Time Zones

All times are in EDT time to prevent confusion due to time zone crossing. See the GGA1 flight status page for this flight to view local times or setup timezone preferences in your user account.

Time Position Orientation Groundspeed Altitude Reporting Facility
EDT Latitude Longitude Course Direction KTS MPH feet Rate Location/Type
05:19PM 41.4000 -73.1000 20° North 158 182 4,600  Level New York TRACON
05:20PM 41.4233 -73.0850 26° Northeast 163 188 5,700 900 Climbing Boston Center
05:20PM 41.4669 -73.0883 357° North 220 253 6,000 1,080 Climbing Boston Center
05:21PM 41.5294 -73.1000 352° North 214 246 7,700 1,680 Climbing Boston Center
05:22PM 41.5753 -73.1033 357° North 214 246 9,300 1,200 Climbing Boston Center
05:23PM 41.6272 -73.1067 357° North 219 252 10,000 840 Climbing Boston Center
05:24PM 41.7257 -73.0705 20° North  Level FlightAware Approximate
05:24PM 41.7025 -73.0908 North 236 272 11,000  Level Boston Center
05:25PM 41.7506 -73.0772 12° North 216 249 13,100 1,860 Climbing Boston Center
05:26PM 41.8111 -73.0556 15° North 197 227 14,800 1,500 Climbing Boston Center
05:27PM 41.8569 -73.0644 352° North 192 221 16,200 1,500 Climbing Boston Center
05:28PM 41.9108 -73.0956 337° Northwest 187 215 17,800 1,440 Climbing Boston Center
05:29PM 41.9628 -73.1269 336° Northwest 192 221 19,100 1,200 Climbing Boston Center
05:30PM 42.0167 -73.1497 343° North 199 229 20,200 900 Climbing Boston Center
05:31PM 42.0728 -73.1783 339° North 199 229 21,000 360 Climbing Boston Center
05:32PM 42.1289 -73.2044 341° North 216 249 21,000 720 Level Boston Center
05:33PM 42.1536 -73.2747 295° West 206 237 22,500 1,260 Climbing Boston Center
05:34PM 42.1467 -73.3444 262° West 179 206 23,600 1,020 Climbing Boston Center
05:35PM 42.1525 -73.4089 277° West 173 199 24,600 900 Climbing Boston Center
05:36PM 42.1475 -73.4789 265° West 183 211 25,400 660 Climbing Boston Center
05:37PM 42.1406 -73.5544 263° West 194 223 26,000 300 Climbing Boston Center
05:38PM 42.1397 -73.6411 269° West 213 245 26,000  Level Boston Center
05:39PM 42.1367 -73.7336 267° West 235 270 26,000  Level Boston Center
05:40PM 42.1314 -73.8203 265° West 241 277 26,000  Level Boston Center
05:41PM 42.1283 -73.9069 267° West 241 277 26,000  Level Boston Center
05:42PM 42.1250 -73.9936 267° West 236 272 26,000  Level Boston Center
05:43PM 42.1197 -74.0775 265° West 231 266 26,000  Level Boston Center
05:44PM 42.1183 -74.1642 269° West 236 272 26,000  Level Boston Center
05:45PM 42.1150 -74.2508 267° West 236 272 26,000  Level Boston Center
05:46PM 42.1117 -74.3347 267° West 236 272 26,000  Level Boston Center
05:48PM 42.1042 -74.4972 266° West 234 269 26,000  Level New York Center
05:49PM 42.0994 -74.5833 266° West 234 269 26,000  Level New York Center
05:50PM 42.0942 -74.6808 266° West 241 277 26,000  Level New York Center
05:51PM 42.0892 -74.7672 266° West 236 272 26,000  Level New York Center
05:52PM 42.0861 -74.8564 267° West 236 272 26,000  Level New York Center
05:53PM 42.0833 -74.9428 268° West 236 272 26,000  Level New York Center
05:54PM 42.0761 -75.0289 264° West 236 272 26,000  Level New York Center
05:55PM 42.0728 -75.1181 267° West 236 272 26,000  Level New York Center
05:56PM 42.0675 -75.2044 265° West 236 272 26,000  Level New York Center
05:57PM 42.0644 -75.2881 267° West 236 272 26,000  Level New York Center
05:58PM 42.0303 -75.3611 238° Southwest 231 266 26,000  Level New York Center
05:59PM 42.0025 -75.4344 243° Southwest 231 266 26,000  Level New York Center
06:00PM 41.9767 -75.5106 245° Southwest 231 266 26,000  Level New York Center
06:01PM 41.9444 -75.5864 240° Southwest 237 273 26,000  Level New York Center
06:02PM 41.9122 -75.6594 239° Southwest 237 273 26,000  Level New York Center
06:03PM 41.8822 -75.7325 241° Southwest 237 273 26,000  Level New York Center
06:04PM 41.8519 -75.8081 242° Southwest 237 273 26,000  Level New York Center
06:05PM 41.8194 -75.8836 240° Southwest 237 273 26,000  Level New York Center
06:06PM 41.7892 -75.9592 242° Southwest 237 273 26,000  Level New York Center
06:07PM 41.7567 -76.0344 240° Southwest 237 273 26,000  Level New York Center
06:08PM 41.7264 -76.1100 242° Southwest 237 273 26,000  Level New York Center
06:09PM 41.6936 -76.1878 241° Southwest 237 273 26,000  Level New York Center
06:10PM 41.6631 -76.2631 242° Southwest 237 273 26,000  Level New York Center
06:11PM 41.6325 -76.3383 242° Southwest 237 273 26,000  Level New York Center
06:12PM 41.5997 -76.4133 240° Southwest 237 273 26,000  Level New York Center
06:13PM 41.5692 -76.4883 241° Southwest 237 273 26,000  Level New York Center
06:14PM 41.5361 -76.5658 240° Southwest 237 273 26,000  Level New York Center
06:15PM 41.5033 -76.6433 241° Southwest 237 273 26,000  Level New York Center
06:16PM 41.4725 -76.7156 240° Southwest 243 280 26,000  Level New York Center
06:17PM 41.4375 -76.7925 239° Southwest 243 280 26,000  Level New York Center
06:18PM 41.4064 -76.8700 242° Southwest 243 280 26,000  Level New York Center
06:19PM 41.3733 -76.9472 240° Southwest 237 273 26,000  Level New York Center
06:20PM 41.3403 -77.0217 239° Southwest 237 273 26,000  Level New York Center
06:21PM 41.3069 -77.0986 240° Southwest 237 273 26,000  Level New York Center
06:22PM 41.2736 -77.1756 240° Southwest 237 273 26,000  Level New York Center
06:23PM 41.2403 -77.2553 241° Southwest 237 273 26,000  Level New York Center
06:24PM 41.2067 -77.3347 241° Southwest 237 273 26,000  Level New York Center
06:25PM 41.1733 -77.4089 239° Southwest 237 273 26,000  Level New York Center
06:28PM 41.0856 -77.6106 240° Southwest 254 292 26,000  Level Cleveland Center
06:29PM 41.0519 -77.6892 240° Southwest 254 292 26,000  Level Cleveland Center
06:30PM 41.0164 -77.7678 239° Southwest 254 292 26,000  Level Cleveland Center
06:31PM 40.9808 -77.8464 239° Southwest 254 292 26,000  Level Cleveland Center
06:32PM 40.9472 -77.9247 240° Southwest 259 298 26,000  Level Cleveland Center
06:33PM 40.9117 -78.0031 239° Southwest 259 298 26,000  Level Cleveland Center
06:34PM 40.8672 -78.0708 229° Southwest 259 298 26,000 -60 Level Cleveland Center
06:35PM 40.8228 -78.1383 229° Southwest 254 292 25,900  Descending Cleveland Center
06:36PM 40.7806 -78.2083 231° Southwest 248 285 26,000  Climbing Cleveland Center
06:37PM 40.7381 -78.2731 229° Southwest 248 285 26,000  Level Cleveland Center
06:38PM 40.6956 -78.3375 229° Southwest 237 273 26,000  Level Cleveland Center
06:39PM 40.6553 -78.4072 233° Southwest 237 273 26,000  Level Cleveland Center
06:40PM 40.6233 -78.4850 242° Southwest 237 273 26,000  Level Cleveland Center
06:41PM 40.5892 -78.5597 239° Southwest 242 278 26,000  Level Cleveland Center
06:42PM 40.5550 -78.6292 237° Southwest 237 273 26,000  Level Cleveland Center
06:43PM 40.5144 -78.6931 230° Southwest 237 273 26,000  Level Cleveland Center
06:44PM 40.4736 -78.7625 232° Southwest 237 273 26,000  Level Cleveland Center
06:45PM 40.4372 -78.8317 235° Southwest 237 273 26,000  Level Cleveland Center
06:46PM 40.3925 -78.8956 227° Southwest 237 273 26,000  Level Cleveland Center
06:47PM 40.3475 -78.9567 226° Southwest 237 273 26,000  Level Cleveland Center
06:48PM 40.3025 -79.0178 226° Southwest 237 273 26,000  Level Cleveland Center
06:49PM 40.2594 -79.0842 230° Southwest 237 273 26,000  Level Cleveland Center
06:50PM 40.2144 -79.1447 226° Southwest 237 273 26,000  Level Cleveland Center
06:51PM 40.1736 -79.2056 229° Southwest 237 273 26,000  Level Cleveland Center
06:52PM 40.1283 -79.2661 226° Southwest 237 273 26,000  Level Cleveland Center
06:53PM 40.0875 -79.3294 230° Southwest 237 273 26,000  Level Cleveland Center
06:54PM 40.0442 -79.3925 228° Southwest 237 273 26,000  Level Cleveland Center
06:55PM 40.0011 -79.4531 227° Southwest 237 273 26,000 -60 Level Cleveland Center
06:56PM 39.9558 -79.5133 226° Southwest 237 273 25,900  Descending Cleveland Center
06:57PM 39.9106 -79.5736 226° Southwest 237 273 26,000  Climbing Cleveland Center
06:58PM 39.8653 -79.6392 228° Southwest 242 278 25,900 -60 Descending Cleveland Center
06:59PM 39.8200 -79.7019 227° Southwest 242 278 25,900  Level Cleveland Center
07:00PM 39.7767 -79.7619 227° Southwest 242 278 26,000  Climbing Cleveland Center
07:01PM 39.7333 -79.8272 229° Southwest 242 278 26,000 -60 Level Cleveland Center
07:02PM 39.6942 -79.8950 233° Southwest 242 278 25,900 -60 Descending Cleveland Center
07:03PM 39.6569 -79.9683 237° Southwest 242 278 25,900  Level Cleveland Center
07:04PM 39.6197 -80.0361 235° Southwest 242 278 26,000  Climbing Cleveland Center
07:05PM 39.5847 -80.1089 238° Southwest 242 278 26,000 -60 Level Cleveland Center
07:06PM 39.5475 -80.1792 236° Southwest 242 278 25,900  Descending Cleveland Center
07:07PM 39.5142 -80.2386 234° Southwest 242 278 26,000  Climbing Cleveland Center
07:08PM 39.4706 -80.3008 228° Southwest 242 278 26,000 -60 Level Cleveland Center
07:09PM 39.4208 -80.3547 220° Southwest 237 273 25,900 -60 Descending Cleveland Center
07:10PM 39.3478 -80.4342 220° Southwest 235 270 25,900  Level Indianapolis Center
07:11PM 39.3017 -80.4903 223° Southwest 229 264 25,900  Level Indianapolis Center
07:12PM 39.2508 -80.5389 217° Southwest 227 261 26,000  Climbing Indianapolis Center
07:13PM 39.2039 -80.5956 223° Southwest 230 265 25,900 -60 Descending Indianapolis Center
07:14PM 39.1572 -80.6506 222° Southwest 229 264 25,900  Level Indianapolis Center
07:15PM 39.1100 -80.7056 222° Southwest 228 262 25,900  Level Indianapolis Center
07:16PM 39.0625 -80.7583 221° Southwest 227 261 25,900  Level Indianapolis Center
07:17PM 39.0122 -80.8311 228° Southwest 227 261 25,900  Level Indianapolis Center
07:18PM 38.9703 -80.8903 228° Southwest 224 258 25,900  Level Indianapolis Center
07:19PM 38.9342 -80.9550 234° Southwest 228 262 25,900  Level Indianapolis Center
07:20PM 38.9089 -81.0289 246° West 226 260 25,900  Level Indianapolis Center
07:21PM 38.8831 -81.0997 245° Southwest 220 253 25,900  Level Indianapolis Center
07:22PM 38.8353 -81.1514 220° Southwest 223 257 26,000  Climbing Indianapolis Center
07:23PM 38.7886 -81.2011 220° Southwest 218 251 26,000 -60 Level Indianapolis Center
07:24PM 38.7383 -81.2483 216° Southwest 222 255 25,900 -60 Descending Indianapolis Center
07:25PM 38.6844 -81.2881 210° Southwest 237 273 25,900  Level Indianapolis Center
07:26PM 38.6064 -81.3089 192° South 237 273 25,900  Level Indianapolis Center
07:27PM 38.5414 -81.3267 192° South 238 274 25,900  Level Indianapolis Center
07:28PM 38.4781 -81.3517 197° South 237 273 25,900  Level Indianapolis Center
07:29PM 38.4139 -81.3786 198° South 239 275 25,900  Level Indianapolis Center
07:31PM 38.3544 -81.4122 204° Southwest 234 269 25,900  Level Indianapolis Center
07:32PM 38.2956 -81.4472 205° Southwest 232 267 25,900  Level Indianapolis Center
07:33PM 38.2350 -81.4794 203° Southwest 234 269 25,900  Level Indianapolis Center
07:34PM 38.1703 -81.4972 192° South 239 275 25,900  Level Indianapolis Center
07:35PM 38.1069 -81.5183 195° South 236 272 25,900  Level Indianapolis Center
07:36PM 38.0411 -81.5372 193° South 241 277 25,900  Level Indianapolis Center
07:37PM 37.9628 -81.5603 193° South 240 276 25,900  Level Indianapolis Center
07:38PM 37.8992 -81.5800 194° South 236 272 25,900  Level Indianapolis Center
07:39PM 37.8294 -81.6000 193° South 240 276 25,900  Level Indianapolis Center
07:40PM 37.7653 -81.6158 191° South 241 277 25,900  Level Indianapolis Center
07:41PM 37.6986 -81.6325 191° South 242 278 25,900  Level Indianapolis Center
07:42PM 37.6322 -81.6472 190° South 241 277 25,900  Level Indianapolis Center
07:43PM 37.5650 -81.6603 189° South 243 280 25,900  Level Indianapolis Center
07:44PM 37.4986 -81.6767 191° South 242 278 25,900  Level Indianapolis Center
07:45PM 37.4197 -81.6936 190° South 244 281 25,900  Level Indianapolis Center
07:46PM 37.3539 -81.7069 189° South 240 276 25,900  Level Indianapolis Center
07:47PM 37.2867 -81.7222 190° South 243 280 25,900  Level Indianapolis Center
07:48PM 37.2206 -81.7342 188° South 239 275 25,900  Level Indianapolis Center
07:49PM 37.1531 -81.7425 186° South 242 278 25,900  Level Indianapolis Center
07:50PM 37.0856 -81.7544 188° South 244 281 25,900  Level Indianapolis Center
07:51PM 37.0172 -81.7656 187° South 246 283 25,900  Level Indianapolis Center
07:52PM 36.9369 -81.7803 188° South 249 287 25,900  Level Indianapolis Center
07:53PM 36.8681 -81.7931 188° South 249 287 25,900  Level Indianapolis Center
07:54PM 36.8325 -81.8033 193° South 250 288 25,900  Level Atlanta Center
07:55PM 36.7639 -81.8131 186° South 255 293 25,900  Level Atlanta Center
07:56PM 36.6931 -81.8253 188° South 255 293 25,900  Level Atlanta Center
07:57PM 36.6244 -81.8350 186° South 255 293 25,900  Level Atlanta Center
07:58PM 36.5539 -81.8472 188° South 255 293 25,900  Level Atlanta Center
07:59PM 36.4872 -81.8567 186° South 255 293 25,900  Level Atlanta Center
08:00PM 36.4228 -81.8689 189° South 255 293 25,900  Level Atlanta Center
08:01PM 36.3519 -81.8758 185° South 255 293 25,900  Level Atlanta Center
08:02PM 36.2833 -81.8831 185° South 255 293 25,900  Level Atlanta Center
08:03PM 36.2172 -81.9131 200° South 250 288 25,900  Level Atlanta Center
08:04PM 36.1575 -81.9558 210° Southwest 250 288 25,900  Level Atlanta Center
08:05PM 36.0956 -81.9933 206° Southwest 250 288 25,900  Level Atlanta Center
08:06PM 36.0356 -82.0333 208° Southwest 250 288 25,900  Level Atlanta Center
08:07PM 35.9736 -82.0758 209° Southwest 250 288 25,900  Level Atlanta Center
08:08PM 35.9078 -82.1211 209° Southwest 250 288 25,900  Level Atlanta Center
08:09PM 35.8458 -82.1583 206° Southwest 250 288 25,900  Level Atlanta Center
08:10PM 35.7836 -82.1983 208° Southwest 250 288 25,900  Level Atlanta Center
08:11PM 35.7197 -82.2381 207° Southwest 257 296 25,900  Level Atlanta Center
08:12PM 35.6578 -82.2778 208° Southwest 257 296 25,900 -180 Level Atlanta Center
08:13PM 35.5956 -82.3147 206° Southwest 262 302 25,600 -720 Descending Atlanta Center
08:14PM 35.5253 -82.3597 208° Southwest 274 315 24,500 -840 Descending Atlanta Center
08:15PM 35.4569 -82.4069 209° Southwest 286 329 24,000 -300 Descending Atlanta Center
08:16PM 35.3847 -82.4492 205° Southwest 280 322 24,000 -480 Level Atlanta Center
08:17PM 35.3161 -82.4886 205° Southwest 275 316 23,100 -900 Descending Atlanta Center
08:18PM 35.2417 -82.5358 207° Southwest 287 330 22,200 -600 Descending Atlanta Center
08:19PM 35.1692 -82.5778 205° Southwest 292 336 22,000 -120 Descending Atlanta Center
08:20PM 35.1050 -82.6247 211° Southwest 280 322 22,000 -1,140 Level Atlanta Center
08:21PM 35.0283 -82.6639 203° Southwest 280 322 19,800 -1,980 Descending Atlanta Center
08:22PM 34.9581 -82.7158 211° Southwest 293 337 18,100 -1,500 Descending Atlanta Center
08:23PM 34.8914 -82.7497 203° Southwest 293 337 16,900 -1,260 Descending Atlanta Center
08:24PM 34.8253 -82.7939 209° Southwest 272 313 15,600 -1,380 Descending Atlanta Center
08:25PM 34.7631 -82.8353 209° Southwest 267 307 14,200 -1,500 Descending Atlanta Center
08:26PM 34.6986 -82.8689 203° Southwest 267 307 12,600 -1,620 Descending Atlanta Center
08:27PM 34.6197 -82.9181 207° Southwest 279 321 11,000 -1,380 Descending Atlanta Center
08:28PM 34.5617 -82.9567 209° Southwest 279 321 9,900 -1,500 Descending Atlanta Center
08:29PM 34.4972 -82.9928 205° Southwest 268 308 8,100 -1,920 Descending Atlanta Center
08:30PM 34.4331 -83.0339 208° Southwest 268 308 6,100 -1,260 Descending Atlanta Center
08:31PM 34.3747 -83.0672 205° Southwest 254 292 5,600 -900 Descending Atlanta Center
08:32PM 34.3167 -83.1031 207° Southwest 238 274 4,300 -840 Descending Atlanta Center
08:33PM 34.2606 -83.1364 206° Southwest 238 274 4,000 -240 Descending Atlanta Center
08:34PM 34.2128 -83.1647 206° Southwest 220 253 3,900 -540 Descending Atlanta Center
08:35PM 34.1567 -83.2003 208° Southwest 220 253 3,000 -480 Descending Atlanta Center
08:36PM 34.1108 -83.2283 207° Southwest 208 239 3,000  Level Atlanta Center
08:37PM 34.0506 -83.2642 206° Southwest 203 234 3,000 6,480 Level Atlanta Center
08:38PM 33.9986 -83.2972 208° Southwest 203 234 16,000 6,480 Climbing Atlanta Center
08:39PM 33.9467 -83.3275 206° Southwest 203 234 16,000  Level Atlanta Center
08:41PM 33.9486 -83.3264 195° South  Level Estimated
08:48PM 33.9486 -83.3264 195° South  Level Estimated
08:49PM 33.9486 -83.3264 195° South  Level Estimated